Time;durP1;ratioP1;P1;durP2;ratioP2;P2;SDS_P1;SDS_P2;PMS_P1;PMS_P2;Temp;Humidity;BMP_temperature;BMP_pressure;BME280_temperature;BME280_humidity;BME280_pressure;Samples;Min_cycle;Max_cycle;Signal;HPM_P1;HPM_P2
2022/09/17 00:02:21;;;;;;;0.30;0.10;;;23.80;61.50;;;;;;4986206;28;20133;-60
2022/09/17 00:04:48;;;;;;;0.05;0.00;;;23.80;61.40;;;;;;4987683;28;20524;-55
2022/09/17 00:07:14;;;;;;;0.10;0.00;;;23.80;61.30;;;;;;4986337;28;20115;-52
2022/09/17 00:09:40;;;;;;;0.20;0.00;;;23.80;61.40;;;;;;4986419;28;20496;-58
2022/09/17 00:12:05;;;;;;;0.47;0.00;;;23.80;61.40;;;;;;4986948;28;20045;-56
2022/09/17 00:14:31;;;;;;;0.10;0.05;;;23.80;61.30;;;;;;4984351;28;20118;-59
2022/09/17 00:16:56;;;;;;;0.00;0.00;;;23.80;61.40;;;;;;4987389;28;20038;-59
2022/09/17 00:19:23;;;;;;;0.00;0.00;;;23.80;61.50;;;;;;4984501;28;20042;-61
2022/09/17 00:21:49;;;;;;;1.13;0.10;;;23.80;61.30;;;;;;4986994;28;20041;-58
2022/09/17 00:24:15;;;;;;;0.10;0.10;;;23.70;61.40;;;;;;4986262;28;20034;-42
2022/09/17 00:26:41;;;;;;;0.38;0.00;;;23.70;61.30;;;;;;4985200;28;20054;-49
2022/09/17 00:29:06;;;;;;;0.05;0.05;;;23.70;61.50;;;;;;4984883;28;20043;-60
2022/09/17 00:31:33;;;;;;;0.00;0.00;;;23.80;61.50;;;;;;4986556;28;20050;-60
2022/09/17 00:33:59;;;;;;;0.10;0.00;;;23.70;61.30;;;;;;4987892;28;20122;-55
2022/09/17 00:36:24;;;;;;;0.00;0.00;;;23.70;61.50;;;;;;4985293;28;20061;-57
2022/09/17 00:38:51;;;;;;;0.00;0.00;;;23.70;61.40;;;;;;4986318;28;20046;-58
2022/09/17 00:41:16;;;;;;;0.00;0.00;;;23.70;61.40;;;;;;4986137;28;20050;-59
2022/09/17 00:43:43;;;;;;;0.22;0.10;;;23.70;61.60;;;;;;4986101;28;20047;-55
2022/09/17 00:46:35;;;;;;;0.10;0.10;;;23.70;61.40;;;;;;4986021;28;20065;-60
2022/09/17 00:49:06;;;;;;;0.00;0.00;;;23.70;61.50;;;;;;4983440;28;20585;-60
2022/09/17 00:51:39;;;;;;;0.10;0.00;;;23.70;61.50;;;;;;4999615;28;20104;-61
2022/09/17 00:54:06;;;;;;;0.10;0.10;;;23.70;61.50;;;;;;4984087;28;20061;-58
2022/09/17 00:56:33;;;;;;;0.08;0.00;;;23.70;61.60;;;;;;5000539;28;20054;-54
2022/09/17 00:59:00;;;;;;;0.20;0.10;;;23.70;61.30;;;;;;4999201;28;20133;-58
2022/09/17 01:01:25;;;;;;;0.10;0.10;;;23.70;61.50;;;;;;4984349;28;20504;-51
2022/09/17 01:03:51;;;;;;;0.10;0.00;;;23.70;61.30;;;;;;4983201;28;20050;-48
2022/09/17 01:06:28;;;;;;;0.15;0.10;;;23.70;61.40;;;;;;4986397;28;20497;-42
2022/09/17 01:09:06;;;;;;;0.10;0.10;;;23.70;61.40;;;;;;4984460;28;20188;-39
2022/09/17 01:12:02;;;;;;;0.03;0.03;;;23.70;61.50;;;;;;4983566;28;20046;-51
2022/09/17 01:14:46;;;;;;;0.10;0.10;;;23.70;61.20;;;;;;4983829;28;20042;-41
2022/09/17 01:17:37;;;;;;;0.10;0.10;;;23.70;61.20;;;;;;4983834;28;20050;-49
2022/09/17 01:20:15;;;;;;;0.10;0.10;;;23.70;61.30;;;;;;4970903;28;20038;-51
2022/09/17 01:23:08;;;;;;;0.10;0.10;;;23.60;61.30;;;;;;4984844;28;20069;-43
2022/09/17 01:26:08;;;;;;;0.22;0.20;;;23.60;61.40;;;;;;4985649;28;20179;-46
2022/09/17 01:28:41;;;;;;;0.45;0.10;;;23.60;61.40;;;;;;4999528;28;20174;-48
2022/09/17 01:31:33;;;;;;;0.90;0.40;;;23.60;61.40;;;;;;4984372;28;20095;-57
2022/09/17 01:34:14;;;;;;;0.10;0.10;;;23.60;61.40;;;;;;4983519;28;20038;-56
2022/09/17 01:37:00;;;;;;;0.00;0.00;;;23.60;61.40;;;;;;4984996;28;20412;-52
2022/09/17 01:39:31;;;;;;;0.22;0.13;;;23.60;61.30;;;;;;4982381;28;20089;-45
2022/09/17 01:42:13;;;;;;;0.10;0.10;;;23.60;61.60;;;;;;4982183;28;20046;-48
2022/09/17 01:44:51;;;;;;;0.10;0.10;;;23.60;61.60;;;;;;4982880;28;20038;-49
2022/09/17 01:47:22;;;;;;;0.10;0.10;;;23.60;61.70;;;;;;4985033;28;20050;-51
2022/09/17 01:49:50;;;;;;;2.08;0.10;;;23.60;61.70;;;;;;4984611;28;20057;-50
2022/09/17 01:52:16;;;;;;;0.00;0.00;;;23.60;61.60;;;;;;4982619;28;20049;-48
2022/09/17 01:54:50;;;;;;;0.13;0.10;;;23.60;61.50;;;;;;4999429;28;20042;-59
2022/09/17 01:57:27;;;;;;;0.20;0.10;;;23.60;61.60;;;;;;4967910;28;20038;-47
2022/09/17 02:00:16;;;;;;;0.00;0.00;;;23.60;62.60;;;;;;4980253;28;20051;-48
2022/09/17 02:03:05;;;;;;;0.10;0.10;;;23.50;61.70;;;;;;4985078;28;20050;-37
2022/09/17 02:05:55;;;;;;;0.20;0.10;;;23.60;61.70;;;;;;4983932;28;20069;-59
2022/09/17 02:08:22;;;;;;;0.00;0.00;;;23.60;61.70;;;;;;4981134;28;20050;-53
2022/09/17 02:10:51;;;;;;;0.32;0.10;;;23.50;61.70;;;;;;4983799;28;20054;-59
2022/09/17 02:13:40;;;;;;;0.20;0.20;;;23.50;61.90;;;;;;4983639;28;20038;-60
2022/09/17 02:16:16;;;;;;;0.00;0.00;;;23.50;61.80;;;;;;4981232;28;20058;-52
2022/09/17 02:18:53;;;;;;;0.10;0.10;;;23.50;61.80;;;;;;4993566;28;20129;-60
2022/09/17 02:21:26;;;;;;;0.43;0.10;;;23.50;61.80;;;;;;4997332;28;20038;-53
2022/09/17 02:23:56;;;;;;;0.20;0.10;;;23.50;62.10;;;;;;4982073;28;20100;-60
2022/09/17 02:26:22;;;;;;;0.00;0.00;;;23.50;62.10;;;;;;4980300;28;20050;-59
2022/09/17 02:28:50;;;;;;;0.90;0.10;;;23.50;61.90;;;;;;4978320;28;20467;-57
2022/09/17 02:31:15;;;;;;;0.10;0.03;;;23.50;62.00;;;;;;4983069;28;20119;-60
2022/09/17 02:33:42;;;;;;;0.00;0.00;;;23.50;61.90;;;;;;4966930;28;20035;-60
2022/09/17 02:36:08;;;;;;;0.52;0.15;;;23.50;62.00;;;;;;4983274;28;20133;-57
2022/09/17 02:38:34;;;;;;;1.27;0.10;;;23.50;62.00;;;;;;4981179;28;20121;-47
2022/09/17 02:41:11;;;;;;;0.00;0.00;;;23.50;62.00;;;;;;4984614;28;20022;-51
2022/09/17 02:43:48;;;;;;;0.10;0.10;;;23.50;61.90;;;;;;4995274;28;20056;-59
2022/09/17 02:46:22;;;;;;;0.10;0.10;;;23.40;61.90;;;;;;4982606;28;20049;-51
2022/09/17 02:49:17;;;;;;;0.03;0.00;;;23.50;62.00;;;;;;4981377;28;20050;-59
2022/09/17 02:51:53;;;;;;;0.00;0.00;;;23.40;61.70;;;;;;4982277;28;20298;-55
2022/09/17 02:54:18;;;;;;;0.00;0.00;;;23.50;61.90;;;;;;4980206;28;20137;-52
2022/09/17 02:56:45;;;;;;;0.10;0.10;;;23.40;61.90;;;;;;4983581;28;20050;-47
2022/09/17 02:59:36;;;;;;;0.38;0.10;;;23.40;62.30;;;;;;4981177;28;20050;-53
2022/09/17 03:02:07;;;;;;;0.10;0.10;;;23.40;62.20;;;;;;4983158;28;20057;-51
2022/09/17 03:04:32;;;;;;;0.03;0.03;;;23.40;62.00;;;;;;4982938;28;20540;-58
2022/09/17 03:06:58;;;;;;;0.75;0.10;;;23.40;62.20;;;;;;4983359;28;20115;-54
2022/09/17 03:09:24;;;;;;;0.10;0.10;;;23.40;62.20;;;;;;4983870;28;20401;-58
2022/09/17 03:11:50;;;;;;;0.10;0.00;;;23.40;62.10;;;;;;4984271;28;20501;-54
2022/09/17 03:14:15;;;;;;;0.00;0.00;;;23.40;62.20;;;;;;4982353;28;20054;-56
2022/09/17 03:16:41;;;;;;;0.32;0.13;;;23.40;62.00;;;;;;4983951;28;20397;-59
2022/09/17 03:19:07;;;;;;;0.25;0.10;;;23.40;62.30;;;;;;4981956;28;20121;-56
2022/09/17 03:21:32;;;;;;;0.10;0.10;;;23.40;62.10;;;;;;4985957;28;20042;-45
2022/09/17 03:23:59;;;;;;;0.10;0.10;;;23.40;62.20;;;;;;4989890;28;20053;-42
2022/09/17 03:26:25;;;;;;;0.15;0.10;;;23.40;62.20;;;;;;4990550;28;20176;-56
2022/09/17 03:28:51;;;;;;;0.10;0.10;;;23.40;61.90;;;;;;4990428;28;20081;-52
2022/09/17 03:31:16;;;;;;;0.10;0.10;;;23.40;62.30;;;;;;4990130;28;20069;-58
2022/09/17 03:33:42;;;;;;;0.60;0.10;;;23.30;62.10;;;;;;4991049;28;20049;-61
2022/09/17 03:36:07;;;;;;;0.32;0.00;;;23.40;62.00;;;;;;4990818;28;20042;-51
2022/09/17 03:38:33;;;;;;;1.75;0.10;;;23.40;62.00;;;;;;4988378;28;20513;-41
2022/09/17 03:41:07;;;;;;;0.03;0.03;;;23.40;62.80;;;;;;4989855;28;20057;-53
2022/09/17 03:43:33;;;;;;;0.17;0.00;;;23.40;61.80;;;;;;4988731;28;20057;-56
2022/09/17 03:45:59;;;;;;;0.13;0.10;;;23.30;61.90;;;;;;4990685;28;20481;-50
2022/09/17 03:48:24;;;;;;;0.10;0.10;;;23.30;61.90;;;;;;4988032;28;20045;-61
2022/09/17 03:50:50;;;;;;;0.10;0.10;;;23.40;61.90;;;;;;4990838;28;20043;-53
2022/09/17 03:53:16;;;;;;;1.48;0.10;;;23.30;61.80;;;;;;4989653;28;20772;-39
2022/09/17 03:55:41;;;;;;;0.10;0.00;;;23.30;61.90;;;;;;4989847;28;20062;-48
2022/09/17 03:58:07;;;;;;;0.00;0.00;;;23.30;61.90;;;;;;4988957;28;20062;-51
2022/09/17 04:00:32;;;;;;;0.10;0.10;;;23.30;62.00;;;;;;4989741;28;20046;-55
2022/09/17 04:02:58;;;;;;;0.10;0.10;;;23.30;62.00;;;;;;4987644;28;20581;-44
2022/09/17 04:05:24;;;;;;;0.00;0.00;;;23.30;62.00;;;;;;4990333;28;20042;-53
2022/09/17 04:07:49;;;;;;;0.00;0.00;;;23.30;61.90;;;;;;4988714;28;20050;-40
2022/09/17 04:10:15;;;;;;;0.08;0.03;;;23.30;61.90;;;;;;4989807;28;20041;-57
2022/09/17 04:12:40;;;;;;;0.03;0.00;;;23.30;61.90;;;;;;4988689;28;20159;-54
2022/09/17 04:15:07;;;;;;;0.17;0.10;;;23.30;62.00;;;;;;4989756;28;20066;-42
2022/09/17 04:17:32;;;;;;;0.00;0.00;;;23.30;61.90;;;;;;4989196;28;20617;-37
2022/09/17 04:19:58;;;;;;;0.00;0.00;;;23.30;61.90;;;;;;4990347;28;20035;-56
2022/09/17 04:22:24;;;;;;;0.20;0.10;;;23.20;61.80;;;;;;4989405;28;20504;-47
2022/09/17 04:24:49;;;;;;;0.00;0.00;;;23.30;61.90;;;;;;4989729;28;20038;-61
2022/09/17 04:27:15;;;;;;;0.10;0.10;;;23.30;61.90;;;;;;4988257;28;20587;-53
2022/09/17 04:29:40;;;;;;;0.13;0.10;;;23.30;62.10;;;;;;4989013;28;21381;-50
2022/09/17 04:32:06;;;;;;;0.28;0.10;;;23.20;62.00;;;;;;4989744;28;20118;-58
2022/09/17 04:34:32;;;;;;;0.20;0.10;;;23.20;62.10;;;;;;4987606;28;20396;-36
2022/09/17 04:36:57;;;;;;;0.05;0.05;;;23.20;61.90;;;;;;4986092;28;20057;-57
2022/09/17 04:39:23;;;;;;;0.00;0.00;;;23.20;62.10;;;;;;4985003;28;20094;-53
2022/09/17 04:41:49;;;;;;;0.10;0.10;;;23.20;61.90;;;;;;4984473;28;20075;-43
2022/09/17 04:44:14;;;;;;;0.00;0.00;;;23.20;62.10;;;;;;4986181;28;20058;-47
2022/09/17 04:46:40;;;;;;;0.10;0.00;;;23.20;62.10;;;;;;4985016;28;20037;-46
2022/09/17 04:49:06;;;;;;;0.00;0.00;;;23.20;62.10;;;;;;4984758;28;20069;-50
2022/09/17 04:51:32;;;;;;;0.00;0.00;;;23.20;62.10;;;;;;4986961;28;20409;-44
2022/09/17 04:53:57;;;;;;;0.00;0.00;;;23.20;62.50;;;;;;4985263;28;20045;-51
2022/09/17 04:56:23;;;;;;;0.00;0.00;;;23.10;62.10;;;;;;4985937;28;20437;-51
2022/09/17 04:58:48;;;;;;;0.00;0.00;;;23.20;62.10;;;;;;4985320;28;20043;-43
2022/09/17 05:01:17;;;;;;;0.28;0.10;;;23.20;62.10;;;;;;4986662;28;20049;-38
2022/09/17 05:03:43;;;;;;;0.08;0.00;;;23.10;62.10;;;;;;4983834;28;20042;-44
2022/09/17 05:06:09;;;;;;;0.08;0.08;;;23.10;62.30;;;;;;4986740;28;20429;-60
2022/09/17 05:08:34;;;;;;;0.22;0.00;;;23.10;62.20;;;;;;4984431;28;20042;-50
2022/09/17 05:11:00;;;;;;;0.10;0.10;;;23.10;62.10;;;;;;4986549;28;20050;-56
2022/09/17 05:13:26;;;;;;;0.10;0.10;;;23.20;62.10;;;;;;4985950;28;20187;-58
2022/09/17 05:15:55;;;;;;;0.20;0.10;;;23.10;62.10;;;;;;4985007;28;20049;-52
2022/09/17 05:18:21;;;;;;;0.13;0.00;;;23.20;62.10;;;;;;4984847;28;20449;-59
2022/09/17 05:20:46;;;;;;;0.00;0.00;;;23.10;62.00;;;;;;4984758;28;20862;-53
2022/09/17 05:23:12;;;;;;;0.00;0.00;;;23.20;62.10;;;;;;4984969;28;20622;-51
2022/09/17 05:25:37;;;;;;;0.10;0.10;;;23.20;62.00;;;;;;4985433;28;20527;-55
2022/09/17 05:28:03;;;;;;;0.57;0.00;;;23.10;62.00;;;;;;4984176;28;20054;-47
2022/09/17 05:30:29;;;;;;;0.22;0.00;;;23.10;62.10;;;;;;4634651;28;10000364;-53
2022/09/17 05:33:02;;;;;;;0.20;0.00;;;23.10;62.00;;;;;;4979556;28;20516;-53
2022/09/17 05:35:28;;;;;;;0.00;0.00;;;23.10;62.30;;;;;;4980517;28;20046;-47
2022/09/17 05:37:59;;;;;;;0.00;0.00;;;23.10;62.50;;;;;;4978392;28;20428;-50
2022/09/17 05:40:26;;;;;;;0.08;0.08;;;23.00;62.40;;;;;;4978883;28;20529;-59
2022/09/17 05:42:51;;;;;;;0.10;0.00;;;23.00;62.30;;;;;;4978850;28;20054;-51
2022/09/17 05:45:17;;;;;;;0.10;0.10;;;23.00;62.20;;;;;;4979379;28;20046;-51
2022/09/17 05:47:42;;;;;;;0.03;0.00;;;23.00;62.10;;;;;;4979370;28;20046;-46
2022/09/17 05:50:08;;;;;;;0.08;0.08;;;23.00;62.10;;;;;;4980189;28;20050;-42
2022/09/17 05:52:34;;;;;;;0.10;0.00;;;23.00;62.00;;;;;;4981668;28;20306;-52
2022/09/17 05:54:59;;;;;;;0.03;0.03;;;23.00;61.90;;;;;;4979199;28;20046;-56
2022/09/17 05:57:27;;;;;;;2.92;0.10;;;23.00;61.60;;;;;;4977051;28;20084;-53
2022/09/17 05:59:53;;;;;;;0.75;0.10;;;22.90;61.30;;;;;;4976794;28;20039;-43
2022/09/17 06:02:18;;;;;;;0.17;0.10;;;22.90;61.10;;;;;;4979783;28;20476;-45
2022/09/17 06:04:44;;;;;;;0.60;0.10;;;22.90;61.10;;;;;;4980067;28;20066;-50
2022/09/17 06:07:10;;;;;;;0.00;0.00;;;22.90;60.90;;;;;;4977234;28;20031;-47
2022/09/17 06:09:36;;;;;;;0.10;0.10;;;22.90;60.50;;;;;;4978536;28;20034;-53
2022/09/17 06:12:03;;;;;;;0.10;0.10;;;22.80;60.30;;;;;;4979841;28;20045;-48
2022/09/17 06:14:29;;;;;;;0.10;0.00;;;22.90;60.10;;;;;;4630048;28;10000061;-42
2022/09/17 06:16:55;;;;;;;0.20;0.10;;;22.90;59.50;;;;;;4981072;28;20286;-45
2022/09/17 06:19:21;;;;;;;0.30;0.10;;;22.80;60.10;;;;;;4979931;28;20046;-44
2022/09/17 06:21:46;;;;;;;0.10;0.10;;;22.80;59.70;;;;;;4980769;28;20038;-47
2022/09/17 06:24:12;;;;;;;0.10;0.10;;;22.80;59.90;;;;;;4977270;28;20121;-50
2022/09/17 06:26:38;;;;;;;0.28;0.22;;;22.80;59.50;;;;;;4973275;28;20039;-57
2022/09/17 06:29:04;;;;;;;0.08;0.08;;;22.70;59.10;;;;;;4972877;28;20034;-57
2022/09/17 06:31:29;;;;;;;0.22;0.15;;;22.70;59.30;;;;;;4979376;28;20035;-50
2022/09/17 06:33:56;;;;;;;0.10;0.10;;;22.70;58.50;;;;;;4984005;28;20057;-58
2022/09/17 06:36:21;;;;;;;0.20;0.10;;;22.70;59.60;;;;;;4979790;28;20524;-49
2022/09/17 06:38:47;;;;;;;0.10;0.10;;;22.70;58.90;;;;;;4979511;28;20054;-47
2022/09/17 06:41:13;;;;;;;0.10;0.10;;;22.70;58.30;;;;;;4980701;28;20444;-43
2022/09/17 06:43:39;;;;;;;0.17;0.17;;;22.70;57.70;;;;;;4979679;28;20123;-44
2022/09/17 06:46:05;;;;;;;0.15;0.10;;;22.60;58.10;;;;;;4980399;28;20125;-54
2022/09/17 06:48:32;;;;;;;0.08;0.08;;;22.70;59.00;;;;;;4974276;28;20054;-55
2022/09/17 06:51:01;;;;;;;0.10;0.10;;;22.60;57.70;;;;;;4976060;28;20413;-55
2022/09/17 06:53:28;;;;;;;0.20;0.10;;;22.60;57.60;;;;;;4973901;28;20448;-47
2022/09/17 06:55:57;;;;;;;0.77;0.10;;;22.60;57.60;;;;;;4977401;28;20047;-60
2022/09/17 06:58:23;;;;;;;0.28;0.28;;;22.60;57.70;;;;;;4991097;28;20109;-53
2022/09/17 07:00:49;;;;;;;0.55;0.20;;;22.60;57.70;;;;;;4967733;28;20537;-38
2022/09/17 07:03:14;;;;;;;0.10;0.10;;;22.60;57.40;;;;;;4972287;28;20042;-40
2022/09/17 07:05:42;;;;;;;0.17;0.10;;;22.60;57.50;;;;;;4976250;28;20074;-41
2022/09/17 07:08:09;;;;;;;0.32;0.20;;;22.60;57.40;;;;;;4972665;28;20485;-41
2022/09/17 07:10:35;;;;;;;0.10;0.10;;;22.60;57.30;;;;;;4969466;28;20217;-39
2022/09/17 07:13:01;;;;;;;0.17;0.10;;;22.50;57.50;;;;;;4969536;28;20061;-39
2022/09/17 07:15:26;;;;;;;0.20;0.10;;;22.50;57.60;;;;;;4965129;28;20583;-39
2022/09/17 07:17:52;;;;;;;0.00;0.00;;;22.50;57.20;;;;;;4971339;28;20493;-39
2022/09/17 07:20:18;;;;;;;0.15;0.10;;;22.50;57.30;;;;;;4975669;28;20042;-40
2022/09/17 07:22:43;;;;;;;0.10;0.10;;;22.50;56.90;;;;;;4972522;28;20046;-39
2022/09/17 07:25:09;;;;;;;0.52;0.10;;;22.60;57.20;;;;;;4972621;28;20061;-41
2022/09/17 07:27:35;;;;;;;0.03;0.03;;;22.50;57.10;;;;;;4974766;28;20050;-40
2022/09/17 07:30:00;;;;;;;0.10;0.10;;;22.50;56.80;;;;;;4954356;28;20026;-38
2022/09/17 07:32:29;;;;;;;0.82;0.10;;;22.60;56.80;;;;;;4973455;28;20070;-39
2022/09/17 07:34:54;;;;;;;0.13;0.13;;;22.60;57.40;;;;;;4983324;28;20423;-36
2022/09/17 07:37:20;;;;;;;0.47;0.10;;;22.60;56.60;;;;;;4977833;28;20046;-40
2022/09/17 07:39:46;;;;;;;0.22;0.15;;;22.60;56.60;;;;;;4977922;28;20080;-40
2022/09/17 07:42:11;;;;;;;0.10;0.10;;;22.60;56.30;;;;;;4974256;28;20054;-39
2022/09/17 07:44:37;;;;;;;0.10;0.05;;;22.60;56.20;;;;;;4977108;28;20095;-39
2022/09/17 07:47:03;;;;;;;0.10;0.10;;;22.70;56.00;;;;;;4979276;28;20137;-39
2022/09/17 07:49:29;;;;;;;0.47;0.10;;;22.70;55.80;;;;;;4977771;28;20517;-44
2022/09/17 07:51:55;;;;;;;0.10;0.10;;;22.80;55.80;;;;;;4974328;28;20038;-39
2022/09/17 07:54:21;;;;;;;0.10;0.10;;;22.80;55.70;;;;;;4978490;28;20065;-39
2022/09/17 07:56:47;;;;;;;0.22;0.10;;;22.90;55.60;;;;;;4976612;28;20149;-41
2022/09/17 07:59:12;;;;;;;0.30;0.10;;;22.80;56.10;;;;;;4976967;28;20149;-39
2022/09/17 08:01:38;;;;;;;0.22;0.20;;;22.70;55.90;;;;;;4979300;28;20539;-39
2022/09/17 08:04:04;;;;;;;0.30;0.20;;;22.70;56.20;;;;;;4978252;28;20425;-39
2022/09/17 08:06:30;;;;;;;0.35;0.10;;;22.60;56.30;;;;;;4980586;28;20121;-39
2022/09/17 08:08:56;;;;;;;0.85;0.10;;;22.60;56.40;;;;;;4983746;28;20129;-37
2022/09/17 08:11:24;;;;;;;0.10;0.10;;;22.60;56.60;;;;;;4986606;28;20039;-39
2022/09/17 08:13:51;;;;;;;0.00;0.00;;;22.60;56.80;;;;;;4985457;28;20138;-38
2022/09/17 08:16:17;;;;;;;0.10;0.10;;;22.60;57.00;;;;;;4985627;28;20042;-39
2022/09/17 08:18:43;;;;;;;0.10;0.10;;;22.60;57.00;;;;;;4985053;28;20065;-39
2022/09/17 08:21:11;;;;;;;1.08;0.05;;;22.60;57.10;;;;;;4986822;28;20513;-36
2022/09/17 08:23:37;;;;;;;0.30;0.10;;;22.60;57.30;;;;;;4983824;28;20065;-37
2022/09/17 08:26:03;;;;;;;0.10;0.10;;;22.60;57.30;;;;;;4986682;28;20053;-42
2022/09/17 08:28:29;;;;;;;0.73;0.10;;;22.70;57.50;;;;;;4985841;28;20062;-39
2022/09/17 08:30:59;;;;;;;0.00;0.00;;;22.70;57.50;;;;;;4997261;28;20074;-38
2022/09/17 08:33:24;;;;;;;0.22;0.10;;;22.70;57.70;;;;;;4984858;28;20106;-39
2022/09/17 08:35:53;;;;;;;0.10;0.10;;;22.70;57.70;;;;;;4984129;28;20054;-39
2022/09/17 08:38:19;;;;;;;0.30;0.10;;;22.70;57.70;;;;;;4983520;28;20046;-39
2022/09/17 08:41:06;;;;;;;0.10;0.03;;;22.70;57.70;;;;;;4985936;28;20162;-41
2022/09/17 08:43:43;;;;;;;0.10;0.10;;;22.70;57.80;;;;;;4985500;28;20069;-39
2022/09/17 08:46:09;;;;;;;0.20;0.10;;;22.70;57.20;;;;;;4984825;28;20441;-36
2022/09/17 08:48:44;;;;;;;0.30;0.20;;;22.70;56.60;;;;;;4987506;28;20035;-36
2022/09/17 08:52:04;;;;;;;0.55;0.10;;;22.80;57.30;;;;;;4983219;28;20054;-37
2022/09/17 08:54:40;;;;;;;0.30;0.10;;;22.80;56.90;;;;;;5041256;28;20037;-39
2022/09/17 08:57:17;;;;;;;0.10;0.10;;;22.80;56.80;;;;;;5026859;28;20061;-39
2022/09/17 09:00:03;;;;;;;0.10;0.10;;;22.80;56.40;;;;;;5024097;28;20041;-39
2022/09/17 09:02:49;;;;;;;0.20;0.10;;;22.80;56.30;;;;;;5041169;28;20059;-38
2022/09/17 09:05:24;;;;;;;0.20;0.17;;;22.80;56.60;;;;;;5044097;28;20120;-41
2022/09/17 09:07:56;;;;;;;1.60;0.20;;;22.80;56.50;;;;;;5027477;28;20069;-37
2022/09/17 09:10:26;;;;;;;0.20;0.10;;;22.90;56.80;;;;;;5028958;28;20040;-38
2022/09/17 09:12:52;;;;;;;0.30;0.10;;;22.90;56.60;;;;;;5041796;28;20060;-38
2022/09/17 09:15:35;;;;;;;0.47;0.10;;;22.80;56.10;;;;;;5027611;28;20458;-39
2022/09/17 09:18:05;;;;;;;0.40;0.10;;;22.90;56.20;;;;;;5024698;28;20087;-38
2022/09/17 09:20:46;;;;;;;0.70;0.17;;;22.90;56.00;;;;;;5041938;28;20067;-38
2022/09/17 09:23:38;;;;;;;0.10;0.10;;;22.90;56.10;;;;;;5026014;28;20590;-38
2022/09/17 09:26:17;;;;;;;0.10;0.10;;;22.90;55.60;;;;;;5007434;28;20047;-37
2022/09/17 09:28:48;;;;;;;0.10;0.00;;;23.00;56.70;;;;;;4655006;28;10000883;-39
2022/09/17 09:31:33;;;;;;;0.15;0.15;;;22.90;56.20;;;;;;4979629;28;20084;-41
2022/09/17 09:34:00;;;;;;;0.10;0.10;;;23.00;56.40;;;;;;4978234;28;20158;-39
2022/09/17 09:36:27;;;;;;;0.10;0.10;;;23.00;56.30;;;;;;4977103;28;20084;-40
2022/09/17 09:39:01;;;;;;;0.22;0.10;;;23.00;56.40;;;;;;4978584;28;20074;-38
2022/09/17 09:41:42;;;;;;;0.10;0.10;;;23.00;56.50;;;;;;4980165;28;20043;-39
2022/09/17 09:44:13;;;;;;;0.95;0.10;;;23.00;56.30;;;;;;4973974;28;20050;-39
2022/09/17 09:46:53;;;;;;;0.20;0.10;;;23.10;56.70;;;;;;4980801;28;20073;-39
2022/09/17 09:49:28;;;;;;;0.08;0.08;;;23.10;56.60;;;;;;4980310;28;20448;-39
2022/09/17 09:52:18;;;;;;;0.70;0.10;;;23.10;56.50;;;;;;4979487;28;20600;-39
2022/09/17 09:54:53;;;;;;;0.45;0.10;;;23.10;56.40;;;;;;4975739;28;20133;-39
2022/09/17 09:57:41;;;;;;;0.10;0.03;;;23.10;56.60;;;;;;4976120;28;20066;-39
2022/09/17 10:00:29;;;;;;;0.00;0.00;;;23.10;56.60;;;;;;4993156;28;20050;-40
2022/09/17 10:03:19;;;;;;;0.25;0.20;;;23.20;56.80;;;;;;4977220;28;20058;-37
2022/09/17 10:06:08;;;;;;;0.10;0.03;;;23.20;57.00;;;;;;4979089;28;20065;-39
2022/09/17 10:08:39;;;;;;;0.20;0.13;;;23.20;56.80;;;;;;4961605;28;20058;-38
2022/09/17 10:11:05;;;;;;;0.30;0.10;;;23.10;56.80;;;;;;4978926;28;20038;-40
2022/09/17 10:13:32;;;;;;;0.00;0.00;;;23.20;56.80;;;;;;4980936;28;20062;-39
2022/09/17 10:16:15;;;;;;;0.00;0.00;;;23.10;56.40;;;;;;4978939;28;20057;-39
2022/09/17 10:18:41;;;;;;;0.00;0.00;;;23.10;56.50;;;;;;4977718;28;20050;-39
2022/09/17 10:21:07;;;;;;;0.10;0.10;;;23.10;56.00;;;;;;4974677;28;20054;-36
2022/09/17 10:23:35;;;;;;;0.98;0.10;;;23.20;56.20;;;;;;4973963;28;20049;-38
2022/09/17 10:26:01;;;;;;;0.13;0.10;;;23.20;55.80;;;;;;4987192;28;20127;-39
2022/09/17 10:28:41;;;;;;;0.60;0.10;;;23.20;55.30;;;;;;4973724;28;20565;-39
2022/09/17 10:31:09;;;;;;;0.47;0.10;;;23.20;55.60;;;;;;4973264;28;20042;-39
2022/09/17 10:33:39;;;;;;;0.28;0.10;;;23.20;55.30;;;;;;4975335;28;20443;-39
2022/09/17 10:36:11;;;;;;;0.10;0.10;;;23.20;55.10;;;;;;4969889;28;20129;-39
2022/09/17 10:38:38;;;;;;;0.15;0.10;;;23.20;54.80;;;;;;4976491;28;20054;-42
2022/09/17 10:41:23;;;;;;;0.15;0.15;;;23.20;54.60;;;;;;4979888;28;20058;-38
2022/09/17 10:43:49;;;;;;;0.00;0.00;;;23.20;54.30;;;;;;4996430;28;20045;-39
2022/09/17 10:46:24;;;;;;;0.25;0.20;;;23.30;53.90;;;;;;4981769;28;20047;-38
2022/09/17 10:48:56;;;;;;;0.00;0.00;;;23.30;54.50;;;;;;4980919;28;20054;-39
2022/09/17 10:51:22;;;;;;;0.10;0.00;;;23.30;53.80;;;;;;4997755;28;20085;-39
2022/09/17 10:53:58;;;;;;;0.20;0.08;;;23.30;53.20;;;;;;4978158;28;20566;-38
2022/09/17 10:56:37;;;;;;;0.30;0.20;;;23.30;53.30;;;;;;4966072;28;20046;-38
2022/09/17 10:59:17;;;;;;;0.20;0.05;;;23.30;53.50;;;;;;4979083;28;20085;-39
2022/09/17 11:01:58;;;;;;;1.65;0.13;;;23.30;53.80;;;;;;4996875;28;20420;-38
2022/09/17 11:05:06;;;;;;;2.13;0.10;;;23.30;53.70;;;;;;4978050;28;20042;-39
2022/09/17 11:07:34;;;;;;;0.17;0.10;;;23.30;53.40;;;;;;4997086;28;20038;-38
2022/09/17 11:10:11;;;;;;;0.30;0.10;;;23.30;54.10;;;;;;4979914;28;20046;-39
2022/09/17 11:12:38;;;;;;;0.30;0.20;;;23.30;54.20;;;;;;4978396;28;20111;-38
2022/09/17 11:15:18;;;;;;;1.35;0.10;;;23.30;53.50;;;;;;4980824;28;20043;-39
2022/09/17 11:18:13;;;;;;;0.10;0.10;;;23.30;53.70;;;;;;4979824;28;20050;-42
2022/09/17 11:21:12;;;;;;;0.40;0.28;;;23.40;54.10;;;;;;4971375;28;20038;-37
2022/09/17 11:24:01;;;;;;;0.00;0.00;;;23.30;53.70;;;;;;4981692;28;20049;-39
2022/09/17 11:27:07;;;;;;;0.20;0.20;;;23.40;53.40;;;;;;4977681;28;20050;-39
2022/09/17 11:30:00;;;;;;;0.45;0.10;;;23.40;54.00;;;;;;4979465;28;20527;-37
2022/09/17 11:32:37;;;;;;;0.17;0.17;;;23.40;54.00;;;;;;4980498;28;20049;-39
2022/09/17 11:35:23;;;;;;;0.45;0.10;;;23.40;54.00;;;;;;4996645;28;20501;-38
2022/09/17 11:37:50;;;;;;;0.57;0.20;;;23.40;54.30;;;;;;4981089;28;20105;-39
2022/09/17 11:40:46;;;;;;;0.47;0.20;;;23.40;54.70;;;;;;4997124;28;20497;-39
2022/09/17 11:43:28;;;;;;;0.20;0.10;;;23.40;54.60;;;;;;4997630;28;20037;-38
2022/09/17 11:45:56;;;;;;;0.35;0.20;;;23.40;54.60;;;;;;4982916;28;20058;-41
2022/09/17 11:48:26;;;;;;;0.20;0.20;;;23.40;54.60;;;;;;4985543;28;20045;-39
2022/09/17 11:50:57;;;;;;;0.40;0.30;;;23.40;54.20;;;;;;4982422;28;20168;-39
2022/09/17 11:53:39;;;;;;;0.22;0.20;;;23.40;54.30;;;;;;4966736;28;20083;-39
2022/09/17 11:56:24;;;;;;;0.30;0.30;;;23.40;54.70;;;;;;5068202;28;20081;-39
2022/09/17 11:58:56;;;;;;;0.28;0.20;;;23.40;54.60;;;;;;4982777;28;20416;-38
2022/09/17 12:01:45;;;;;;;0.30;0.30;;;23.40;54.60;;;;;;4984332;28;20521;-43
2022/09/17 12:04:40;;;;;;;0.85;0.20;;;23.40;54.70;;;;;;4982597;28;20069;-38
2022/09/17 12:07:40;;;;;;;0.20;0.20;;;23.40;54.90;;;;;;4983842;28;20061;-39
2022/09/17 12:10:36;;;;;;;0.50;0.30;;;23.50;55.10;;;;;;4990527;28;20061;-39
2022/09/17 12:13:02;;;;;;;0.60;0.40;;;23.50;54.90;;;;;;4983642;28;20046;-37
2022/09/17 12:15:29;;;;;;;0.40;0.40;;;23.50;54.80;;;;;;4985022;28;20542;-39
2022/09/17 12:18:09;;;;;;;0.60;0.30;;;23.50;54.80;;;;;;4982581;28;20043;-39
2022/09/17 12:20:35;;;;;;;0.40;0.40;;;23.50;55.30;;;;;;4984083;28;20493;-39
2022/09/17 12:23:03;;;;;;;0.38;0.20;;;23.50;55.10;;;;;;4988699;28;20062;-39
2022/09/17 12:25:36;;;;;;;0.82;0.45;;;23.50;55.40;;;;;;5001271;28;20049;-38
2022/09/17 12:28:24;;;;;;;0.50;0.40;;;23.50;55.20;;;;;;4990774;28;20047;-39
2022/09/17 12:30:59;;;;;;;0.73;0.43;;;23.50;55.40;;;;;;4992115;28;20046;-39
2022/09/17 12:33:36;;;;;;;0.45;0.30;;;23.50;55.20;;;;;;4987185;28;20046;-40
2022/09/17 12:36:18;;;;;;;0.30;0.30;;;23.50;54.90;;;;;;4983125;28;20535;-40
2022/09/17 12:38:50;;;;;;;1.80;0.50;;;23.50;54.40;;;;;;4980919;28;20398;-39
2022/09/17 12:41:37;;;;;;;0.20;0.20;;;23.50;54.00;;;;;;5000036;28;20478;-38
2022/09/17 12:44:15;;;;;;;0.60;0.40;;;23.50;53.70;;;;;;4982786;28;20046;-39
2022/09/17 12:46:53;;;;;;;0.40;0.20;;;23.50;54.00;;;;;;4997240;28;20097;-38
2022/09/17 12:49:37;;;;;;;0.60;0.45;;;23.50;53.50;;;;;;4997365;28;20039;-42
2022/09/17 12:52:26;;;;;;;0.35;0.30;;;23.50;54.00;;;;;;4998765;28;20165;-37
2022/09/17 12:55:19;;;;;;;0.57;0.30;;;23.60;54.20;;;;;;4995138;28;20526;-39
2022/09/17 12:57:56;;;;;;;0.20;0.20;;;23.60;53.90;;;;;;4921851;28;20051;-40
2022/09/17 13:00:21;;;;;;;0.40;0.30;;;23.60;54.20;;;;;;4943441;28;20518;-39
2022/09/17 13:02:48;;;;;;;0.30;0.30;;;23.60;53.70;;;;;;4929041;28;20043;-39
2022/09/17 13:05:39;;;;;;;0.25;0.22;;;23.60;54.00;;;;;;4950016;28;20075;-41
2022/09/17 13:08:11;;;;;;;0.40;0.30;;;23.50;54.30;;;;;;4956492;28;20518;-38
2022/09/17 13:10:55;;;;;;;0.50;0.30;;;23.60;54.50;;;;;;4956920;28;20500;-39